Time;durP1;ratioP1;P1;durP2;ratioP2;P2;SDS_P1;SDS_P2;PMS_P1;PMS_P2;Temp;Humidity;BMP_temperature;BMP_pressure;BME280_temperature;BME280_humidity;BME280_pressure;Samples;Min_cycle;Max_cycle;Signal;HPM_P1;HPM_P2
2021/12/23 00:01:39;;;;;;;38.42;18.98;;;;;;;-0.21;100.00;101407.47;5080134;28;20110;-73
2021/12/23 00:04:09;;;;;;;36.75;19.70;;;;;;;-0.25;100.00;101397.53;5068691;28;20040;-74
2021/12/23 00:06:36;;;;;;;41.40;21.38;;;;;;;-0.24;100.00;101374.63;5076445;28;20054;-73
2021/12/23 00:09:04;;;;;;;40.42;18.95;;;;;;;-0.22;100.00;101358.84;5080487;28;20431;-74
2021/12/23 00:11:32;;;;;;;39.90;18.58;;;;;;;-0.19;100.00;101359.03;5079323;28;20048;-74
2021/12/23 00:14:05;;;;;;;59.70;24.05;;;;;;;-0.15;100.00;101367.34;5072536;28;20049;-74
2021/12/23 00:17:06;;;;;;;41.95;21.40;;;;;;;-0.15;100.00;101362.72;5071699;28;20539;-73
2021/12/23 00:19:37;;;;;;;44.05;20.92;;;;;;;-0.11;100.00;101357.47;5076690;28;20056;-74
2021/12/23 00:24:49;;;;;;;65.18;26.45;;;;;;;-0.15;100.00;101332.00;5075942;28;20138;-74
2021/12/23 00:27:16;;;;;;;65.50;28.58;;;;;;;-0.11;100.00;101339.22;5078443;28;20052;-72
2021/12/23 00:29:42;;;;;;;63.00;29.13;;;;;;;-0.13;100.00;101335.22;5077799;28;20092;-74
2021/12/23 00:32:09;;;;;;;54.90;25.63;;;;;;;-0.16;100.00;101336.63;5079112;28;20148;-75
2021/12/23 00:34:37;;;;;;;66.57;29.52;;;;;;;-0.10;100.00;101356.38;5068321;28;20139;-72
2021/12/23 00:37:08;;;;;;;55.30;26.27;;;;;;;-0.08;100.00;101325.00;5077155;28;20131;-73
2021/12/23 00:39:35;;;;;;;57.53;26.95;;;;;;;-0.06;100.00;101302.94;5076163;28;20133;-74
2021/12/23 00:42:07;;;;;;;50.05;22.90;;;;;;;-0.09;100.00;101312.50;5067544;28;20503;-73
2021/12/23 00:44:36;;;;;;;56.00;27.30;;;;;;;-0.12;100.00;101305.00;5083583;28;20064;-75
2021/12/23 00:47:03;;;;;;;50.03;23.92;;;;;;;-0.17;100.00;101299.66;5076536;28;20128;-73
2021/12/23 00:49:30;;;;;;;43.05;21.73;;;;;;;-0.12;100.00;101291.41;5072178;28;20426;-74
2021/12/23 00:51:58;;;;;;;41.95;20.67;;;;;;;-0.06;100.00;101298.28;5074483;28;20077;-74
2021/12/23 00:54:25;;;;;;;45.63;20.65;;;;;;;0.00;100.00;101285.38;5073482;28;20143;-73
2021/12/23 00:56:52;;;;;;;36.30;18.67;;;;;;;0.00;100.00;101280.72;5077434;28;20068;-73
2021/12/23 00:59:18;;;;;;;39.75;21.08;;;;;;;0.03;100.00;101285.53;5077331;28;20056;-73
2021/12/23 01:01:47;;;;;;;44.42;20.83;;;;;;;0.04;100.00;101270.81;5078462;28;20053;-74
2021/12/23 01:04:14;;;;;;;41.17;20.17;;;;;;;0.08;100.00;101260.09;5079946;28;20117;-73
2021/12/23 01:06:40;;;;;;;41.90;19.48;;;;;;;0.04;100.00;101273.53;5075511;28;20140;-74
2021/12/23 01:09:07;;;;;;;35.50;18.52;;;;;;;-0.02;100.00;101271.28;5081387;28;20048;-73
2021/12/23 01:11:35;;;;;;;38.50;20.40;;;;;;;-0.02;100.00;101263.91;5073697;28;20052;-75
2021/12/23 01:17:22;;;;;;;38.28;19.13;;;;;;;-0.04;100.00;101236.22;5064960;28;20062;-73
2021/12/23 01:19:53;;;;;;;39.38;19.77;;;;;;;0.02;100.00;101215.09;5079423;28;20051;-73
2021/12/23 01:22:20;;;;;;;40.65;19.88;;;;;;;0.00;100.00;101209.19;5081323;28;20123;-73
2021/12/23 01:24:47;;;;;;;39.97;19.65;;;;;;;-0.02;100.00;101201.34;5067357;28;20048;-73
2021/12/23 01:27:15;;;;;;;39.70;18.38;;;;;;;0.03;100.00;101225.69;5071203;28;20167;-73
2021/12/23 01:29:42;;;;;;;37.20;17.95;;;;;;;0.07;100.00;101214.16;5079072;28;20106;-73
2021/12/23 01:32:09;;;;;;;36.72;19.35;;;;;;;0.06;100.00;101194.31;5081133;28;20052;-74
2021/12/23 01:34:36;;;;;;;41.35;19.73;;;;;;;0.10;100.00;101203.44;5080159;28;20052;-73
2021/12/23 01:37:04;;;;;;;40.13;19.35;;;;;;;0.09;100.00;101203.78;5079075;28;20408;-74
2021/12/23 01:39:32;;;;;;;37.42;19.13;;;;;;;0.10;100.00;101198.00;5073979;28;20057;-73
2021/12/23 01:41:59;;;;;;;40.90;19.85;;;;;;;0.09;100.00;101179.28;5076171;28;20070;-73
2021/12/23 01:44:25;;;;;;;46.78;21.42;;;;;;;0.14;100.00;101184.56;5072899;28;20052;-73
2021/12/23 01:46:52;;;;;;;45.30;21.25;;;;;;;0.16;100.00;101187.78;5070721;28;20049;-72
2021/12/23 01:49:18;;;;;;;61.25;26.67;;;;;;;0.13;100.00;101191.94;5082736;28;20044;-74
2021/12/23 01:51:45;;;;;;;43.47;21.55;;;;;;;0.15;100.00;101183.44;5067657;28;20135;-73
2021/12/23 01:54:11;;;;;;;50.10;22.23;;;;;;;0.14;100.00;101195.47;5069286;28;20497;-74
2021/12/23 01:56:38;;;;;;;40.65;22.08;;;;;;;0.11;100.00;101177.84;5071747;28;20054;-73
2021/12/23 01:59:04;;;;;;;48.58;23.20;;;;;;;0.09;100.00;101162.97;5075649;28;20135;-75
2021/12/23 02:01:31;;;;;;;51.95;24.63;;;;;;;0.10;100.00;101172.72;5076321;28;20436;-72
2021/12/23 02:03:58;;;;;;;46.67;21.52;;;;;;;0.07;100.00;101176.06;5077230;28;20052;-72
2021/12/23 02:06:24;;;;;;;55.70;23.63;;;;;;;0.06;100.00;101182.66;5072705;28;20052;-76
2021/12/23 02:08:51;;;;;;;50.83;23.55;;;;;;;0.06;100.00;101198.97;5081530;28;20508;-73
2021/12/23 02:11:18;;;;;;;44.35;19.52;;;;;;;0.07;100.00;101187.78;5078449;28;20071;-74
2021/12/23 02:13:45;;;;;;;53.42;23.80;;;;;;;0.13;100.00;101185.69;5075966;28;20450;-73
2021/12/23 02:16:11;;;;;;;49.58;24.48;;;;;;;0.12;100.00;101176.72;5072567;28;20127;-74
2021/12/23 02:18:38;;;;;;;49.60;23.80;;;;;;;0.10;100.00;101175.44;5076586;28;20083;-74
2021/12/23 02:21:05;;;;;;;45.55;22.23;;;;;;;0.12;100.00;101193.06;5077838;28;20424;-73
2021/12/23 02:23:32;;;;;;;41.25;20.67;;;;;;;0.18;100.00;101199.16;5076547;28;20084;-73
2021/12/23 02:25:59;;;;;;;39.33;20.55;;;;;;;0.20;100.00;101181.38;5072371;28;20040;-72
2021/12/23 02:28:27;;;;;;;44.38;22.20;;;;;;;0.20;100.00;101164.25;5085639;28;20052;-75
2021/12/23 02:30:54;;;;;;;43.17;22.40;;;;;;;0.25;100.00;101161.38;5074682;28;20131;-75
2021/12/23 02:33:24;;;;;;;38.38;19.42;;;;;;;0.22;100.00;101160.09;5070733;28;20048;-74
2021/12/23 02:35:53;;;;;;;38.70;20.05;;;;;;;0.19;100.00;101160.72;5080781;28;20392;-73
2021/12/23 02:38:19;;;;;;;44.47;20.13;;;;;;;0.20;100.00;101147.94;5075438;28;20045;-74
2021/12/23 02:40:46;;;;;;;37.38;19.95;;;;;;;0.17;100.00;101148.56;5079607;28;20063;-73
2021/12/23 02:43:24;;;;;;;39.72;19.55;;;;;;;0.22;100.00;101151.13;5080328;28;20040;-73
2021/12/23 02:45:55;;;;;;;39.35;19.25;;;;;;;0.30;100.00;101159.31;5071035;28;20087;-73
2021/12/23 02:48:25;;;;;;;39.78;20.05;;;;;;;0.31;100.00;101138.34;5081497;28;20106;-73
2021/12/23 02:50:54;;;;;;;32.58;15.95;;;;;;;0.32;100.00;101138.03;5070907;28;20056;-74
2021/12/23 02:53:21;;;;;;;36.33;16.92;;;;;;;0.34;100.00;101132.25;5083078;28;20131;-73
2021/12/23 02:55:49;;;;;;;31.48;16.42;;;;;;;0.34;100.00;101143.97;5075977;28;20123;-73
2021/12/23 02:58:16;;;;;;;33.58;16.15;;;;;;;0.37;100.00;101139.78;5084651;28;20802;-72
2021/12/23 03:00:45;;;;;;;37.08;18.55;;;;;;;0.33;100.00;101125.22;5082809;28;20532;-75
2021/12/23 03:03:12;;;;;;;40.50;18.35;;;;;;;0.37;100.00;101124.25;5078740;28;20056;-73
2021/12/23 03:05:39;;;;;;;35.15;15.73;;;;;;;0.37;100.00;101115.28;5070957;28;20053;-73
2021/12/23 03:08:05;;;;;;;36.67;16.17;;;;;;;0.33;100.00;101117.06;5082073;28;20143;-75
2021/12/23 03:10:32;;;;;;;39.13;18.25;;;;;;;0.30;100.00;101114.97;5080149;28;20095;-73
2021/12/23 03:12:58;;;;;;;37.35;16.85;;;;;;;0.28;100.00;101106.31;5068915;28;20052;-74
2021/12/23 03:15:25;;;;;;;35.10;16.40;;;;;;;0.30;100.00;101093.19;5077795;28;20697;-74
2021/12/23 03:17:52;;;;;;;32.33;15.50;;;;;;;0.35;100.00;101101.19;5084616;28;20141;-73
2021/12/23 03:20:18;;;;;;;28.65;14.18;;;;;;;0.34;100.00;101105.84;5084913;28;20044;-73
2021/12/23 03:22:45;;;;;;;30.27;13.13;;;;;;;0.26;100.00;101114.78;5086024;28;20497;-74
2021/12/23 03:25:11;;;;;;;38.72;17.95;;;;;;;0.29;100.00;101111.44;5084447;28;20048;-72
2021/12/23 03:27:38;;;;;;;35.50;16.65;;;;;;;0.33;100.00;101126.00;5071852;28;20063;-72
2021/12/23 03:30:06;;;;;;;34.53;15.10;;;;;;;0.36;100.00;101119.94;5076529;28;20514;-73
2021/12/23 03:32:33;;;;;;;40.35;17.50;;;;;;;0.40;100.00;101117.38;5071452;28;20049;-71
2021/12/23 03:35:00;;;;;;;36.58;17.15;;;;;;;0.41;100.00;101117.06;5071923;28;20058;-73
2021/12/23 03:37:26;;;;;;;33.95;16.10;;;;;;;0.41;100.00;101116.25;5076344;28;20139;-73
2021/12/23 03:39:53;;;;;;;31.95;15.13;;;;;;;0.46;100.00;101114.16;5070095;28;20560;-72
2021/12/23 03:42:20;;;;;;;36.63;17.65;;;;;;;0.48;100.00;101109.22;5068142;28;20060;-73
2021/12/23 03:44:48;;;;;;;33.58;15.75;;;;;;;0.49;100.00;101107.28;5068533;28;20052;-73
2021/12/23 03:47:15;;;;;;;33.70;14.88;;;;;;;0.45;100.00;101109.84;5068367;28;20072;-73
2021/12/23 03:49:41;;;;;;;37.58;15.75;;;;;;;0.46;100.00;101105.19;5068148;28;20056;-73
2021/12/23 03:52:08;;;;;;;36.20;17.48;;;;;;;0.41;100.00;101099.91;5071870;28;20131;-72
2021/12/23 03:54:34;;;;;;;35.50;16.92;;;;;;;0.36;100.00;101090.00;5074861;28;20063;-73
2021/12/23 03:57:01;;;;;;;36.50;16.58;;;;;;;0.37;100.00;101093.53;5082731;28;20084;-72
2021/12/23 03:59:28;;;;;;;37.47;17.08;;;;;;;0.33;100.00;101084.41;5082560;28;20126;-73
2021/12/23 04:01:54;;;;;;;37.92;17.17;;;;;;;0.28;100.00;101090.00;5080005;28;20040;-73
2021/12/23 04:04:21;;;;;;;34.60;15.93;;;;;;;0.24;100.00;101086.31;5074915;28;20048;-74
2021/12/23 04:06:47;;;;;;;34.90;14.45;;;;;;;0.28;100.00;101085.34;5075451;28;20039;-73
2021/12/23 04:09:14;;;;;;;34.58;15.32;;;;;;;0.21;100.00;101089.66;5072947;28;20046;-73
2021/12/23 04:11:40;;;;;;;33.17;14.98;;;;;;;0.18;100.00;101095.75;5080261;28;20412;-73
2021/12/23 04:14:07;;;;;;;32.40;15.95;;;;;;;0.17;100.00;101094.16;5079063;28;20127;-72
2021/12/23 04:16:34;;;;;;;35.75;16.92;;;;;;;0.16;100.00;101101.50;5071933;28;20121;-73
2021/12/23 04:19:05;;;;;;;36.80;16.70;;;;;;;0.10;100.00;101083.72;5075203;28;20573;-73
2021/12/23 04:21:33;;;;;;;33.97;14.50;;;;;;;0.08;100.00;101069.66;5078982;28;20049;-72
2021/12/23 04:24:00;;;;;;;34.40;16.25;;;;;;;0.05;100.00;101070.28;5066665;28;20052;-72
2021/12/23 04:26:27;;;;;;;36.75;17.27;;;;;;;0.03;100.00;101064.34;5069504;28;20047;-73
2021/12/23 04:28:53;;;;;;;39.55;17.38;;;;;;;0.02;100.00;101051.88;5069695;28;20048;-74
2021/12/23 04:31:23;;;;;;;32.22;15.80;;;;;;;0.02;100.00;101049.16;5069806;28;20054;-74
2021/12/23 04:33:53;;;;;;;33.40;14.60;;;;;;;0.03;100.00;101037.16;5076785;28;20048;-73
2021/12/23 04:36:21;;;;;;;32.05;14.68;;;;;;;0.03;100.00;101032.50;5077020;28;20044;-74
2021/12/23 04:38:48;;;;;;;30.52;14.40;;;;;;;0.01;100.00;101028.53;5077824;28;20052;-72
2021/12/23 04:41:14;;;;;;;34.67;15.77;;;;;;;-0.03;100.00;101022.13;5069802;28;20063;-75
2021/12/23 04:43:41;;;;;;;37.72;16.70;;;;;;;-0.03;100.00;101031.06;5068705;28;20163;-73
2021/12/23 04:46:08;;;;;;;34.92;17.45;;;;;;;-0.06;100.00;101025.47;5082335;28;20131;-75
2021/12/23 04:48:34;;;;;;;36.95;16.92;;;;;;;-0.09;100.00;101032.34;5075633;28;20106;-74
2021/12/23 04:51:01;;;;;;;36.28;16.15;;;;;;;-0.14;100.00;101023.53;5074943;28;20048;-73
2021/12/23 04:53:28;;;;;;;33.97;16.15;;;;;;;-0.21;100.00;101028.66;5071331;28;20561;-73
2021/12/23 04:55:54;;;;;;;41.17;17.50;;;;;;;-0.27;100.00;101011.69;5076262;28;20052;-73
2021/12/23 04:58:21;;;;;;;36.20;17.05;;;;;;;-0.26;100.00;101007.06;5078463;28;20052;-75
2021/12/23 05:00:50;;;;;;;38.95;16.80;;;;;;;-0.29;100.00;101008.50;5084687;28;20055;-73
2021/12/23 05:03:19;;;;;;;32.85;15.55;;;;;;;-0.39;100.00;100994.41;5072089;28;20687;-73
2021/12/23 05:05:47;;;;;;;40.30;17.83;;;;;;;-0.37;100.00;100987.53;5068224;28;20056;-73
2021/12/23 05:08:14;;;;;;;40.03;17.05;;;;;;;-0.37;100.00;100968.50;5080886;28;20079;-75
2021/12/23 05:10:42;;;;;;;35.95;16.60;;;;;;;-0.38;100.00;100969.63;5067567;28;20062;-73
2021/12/23 05:13:09;;;;;;;36.60;15.93;;;;;;;-0.37;100.00;100963.06;5075873;28;20062;-73
2021/12/23 05:15:36;;;;;;;34.15;14.82;;;;;;;-0.36;100.00;100961.94;5076380;28;20048;-73
2021/12/23 05:18:03;;;;;;;34.40;15.43;;;;;;;-0.40;100.00;100962.91;5071810;28;20078;-74
2021/12/23 05:20:30;;;;;;;36.33;16.08;;;;;;;-0.43;100.00;100966.25;5074158;28;20143;-74
2021/12/23 05:22:57;;;;;;;37.38;17.50;;;;;;;-0.43;100.00;100961.59;5077902;28;20130;-73
2021/12/23 05:25:24;;;;;;;39.30;17.63;;;;;;;-0.46;100.00;100945.94;5077858;28;20056;-73
2021/12/23 05:27:54;;;;;;;43.45;18.35;;;;;;;-0.46;100.00;100931.56;5072135;28;20059;-73
2021/12/23 05:30:23;;;;;;;33.50;15.73;;;;;;;-0.49;100.00;100911.25;5070545;28;20406;-73
2021/12/23 05:32:50;;;;;;;36.00;15.57;;;;;;;-0.46;100.00;100899.75;5070619;28;20134;-73
2021/12/23 05:35:19;;;;;;;38.75;17.50;;;;;;;-0.44;100.00;100907.56;5067695;28;20054;-74
2021/12/23 05:37:47;;;;;;;39.88;17.65;;;;;;;-0.39;100.00;100910.13;5071827;28;20123;-73
2021/12/23 05:40:15;;;;;;;41.45;16.92;;;;;;;-0.41;100.00;100902.28;5076615;28;20463;-76
2021/12/23 05:42:43;;;;;;;36.58;17.40;;;;;;;-0.36;100.00;100896.72;5069354;28;20137;-73
2021/12/23 05:45:10;;;;;;;37.28;18.02;;;;;;;-0.34;100.00;100905.31;5066468;28;20143;-73
2021/12/23 05:47:37;;;;;;;37.83;17.38;;;;;;;-0.36;100.00;100907.56;5073648;28;20049;-76
2021/12/23 05:50:05;;;;;;;44.78;20.00;;;;;;;-0.29;100.00;100912.53;5068898;28;20135;-74
2021/12/23 05:52:32;;;;;;;49.03;19.35;;;;;;;-0.23;100.00;100903.88;5069094;28;20133;-75
2021/12/23 05:55:01;;;;;;;43.80;18.02;;;;;;;-0.17;100.00;100912.66;5080667;28;20049;-73
2021/12/23 05:57:29;;;;;;;43.72;19.23;;;;;;;-0.09;100.00;100920.03;5072017;28;20127;-73
2021/12/23 05:59:56;;;;;;;46.58;20.10;;;;;;;-0.06;100.00;100933.00;5078378;28;20048;-73
2021/12/23 06:02:23;;;;;;;46.42;21.15;;;;;;;-0.06;100.00;100920.19;5079510;28;20058;-73
2021/12/23 06:04:50;;;;;;;47.92;20.77;;;;;;;-0.04;100.00;100914.41;5077469;28;20048;-73
2021/12/23 06:07:16;;;;;;;48.00;20.42;;;;;;;0.01;100.00;100927.88;5071602;28;20135;-73
2021/12/23 06:09:43;;;;;;;50.83;22.23;;;;;;;0.07;100.00;100942.09;5070597;28;20160;-73
2021/12/23 06:12:10;;;;;;;49.80;21.55;;;;;;;0.12;100.00;100941.91;5080738;28;20428;-73
2021/12/23 06:14:36;;;;;;;45.40;19.80;;;;;;;0.16;100.00;100942.91;5083597;28;20143;-74
2021/12/23 06:17:03;;;;;;;50.92;21.75;;;;;;;0.22;100.00;100930.69;5075884;28;20454;-74
2021/12/23 06:19:30;;;;;;;51.05;21.08;;;;;;;0.25;100.00;100924.63;5075148;28;20128;-72
2021/12/23 06:21:56;;;;;;;45.03;18.60;;;;;;;0.25;100.00;100927.34;5069792;28;20050;-74
2021/12/23 06:24:23;;;;;;;44.00;20.08;;;;;;;0.20;100.00;100911.19;5070594;28;20361;-74
2021/12/23 06:26:49;;;;;;;45.20;20.48;;;;;;;0.24;100.00;100901.25;5070999;28;20071;-75
2021/12/23 06:29:16;;;;;;;53.92;20.45;;;;;;;0.28;100.00;100899.47;5070564;28;20127;-73
2021/12/23 06:31:42;;;;;;;48.92;20.63;;;;;;;0.25;100.00;100891.97;5086874;28;20044;-75
2021/12/23 06:34:09;;;;;;;43.47;20.02;;;;;;;0.29;100.00;100891.00;5076483;28;20160;-73
2021/12/23 06:36:35;;;;;;;43.38;18.35;;;;;;;0.33;100.00;100883.78;5100737;28;20574;-74
2021/12/23 06:39:04;;;;;;;47.35;20.08;;;;;;;0.34;100.00;100884.56;5085754;28;20047;-73
2021/12/23 06:41:31;;;;;;;47.90;21.02;;;;;;;0.38;100.00;100877.34;5075046;28;20106;-72
2021/12/23 06:43:58;;;;;;;44.63;20.30;;;;;;;0.39;100.00;100868.06;5079227;28;20048;-72
2021/12/23 06:46:24;;;;;;;45.60;21.25;;;;;;;0.40;100.00;100866.94;5079360;28;20118;-73
2021/12/23 06:48:51;;;;;;;45.17;20.50;;;;;;;0.41;100.00;100877.53;5080472;28;20064;-74
2021/12/23 06:51:18;;;;;;;49.65;20.23;;;;;;;0.39;100.00;100882.47;5076891;28;20054;-73
2021/12/23 06:53:45;;;;;;;48.03;19.60;;;;;;;0.41;100.00;100884.88;5075524;28;20059;-72
2021/12/23 06:56:13;;;;;;;45.38;20.45;;;;;;;0.44;100.00;100893.19;5078632;28;20135;-75
2021/12/23 06:58:40;;;;;;;48.22;21.92;;;;;;;0.48;100.00;100887.91;5078686;28;20259;-73
2021/12/23 07:01:07;;;;;;;47.33;21.15;;;;;;;0.50;100.00;100891.09;5077300;28;20045;-73
2021/12/23 07:06:32;;;;;;;39.50;18.63;;;;;;;0.53;100.00;100893.13;5074336;28;20048;-73
2021/12/23 07:09:00;;;;;;;42.35;18.83;;;;;;;0.50;100.00;100880.22;5076340;28;20048;-73
2021/12/23 07:11:32;;;;;;;41.85;17.58;;;;;;;0.46;100.00;100885.50;5080866;28;20052;-73
2021/12/23 07:13:59;;;;;;;39.55;17.77;;;;;;;0.47;100.00;100881.63;5082695;28;20128;-73
2021/12/23 07:16:26;;;;;;;44.05;20.95;;;;;;;0.45;100.00;100880.38;5084720;28;20052;-75
2021/12/23 07:18:52;;;;;;;41.47;19.83;;;;;;;0.41;100.00;100865.81;5080757;28;20049;-75
2021/12/23 07:21:19;;;;;;;48.78;21.70;;;;;;;0.40;100.00;100858.78;5076964;28;20052;-75
2021/12/23 07:23:45;;;;;;;49.08;20.38;;;;;;;0.37;100.00;100865.66;5079641;28;20527;-76
2021/12/23 07:26:12;;;;;;;42.45;18.52;;;;;;;0.43;100.00;100871.75;5077665;28;20044;-74
2021/12/23 07:28:38;;;;;;;41.72;18.90;;;;;;;0.41;100.00;100876.72;5082181;28;20520;-75
2021/12/23 07:31:05;;;;;;;41.55;19.13;;;;;;;0.39;100.00;100873.50;5074616;28;20501;-76
2021/12/23 07:33:31;;;;;;;45.72;20.85;;;;;;;0.40;100.00;100878.63;5076213;28;20114;-74
2021/12/23 07:35:58;;;;;;;39.75;19.52;;;;;;;0.39;100.00;100884.38;5087358;28;20070;-75
2021/12/23 07:38:24;;;;;;;42.78;19.85;;;;;;;0.40;100.00;100886.00;5089230;28;20131;-75
2021/12/23 07:40:51;;;;;;;41.97;19.52;;;;;;;0.42;100.00;100897.34;5079528;28;20143;-74
2021/12/23 07:44:07;;;;;;;37.53;18.17;;;;;;;0.44;100.00;100903.28;5082915;28;20093;-75
2021/12/23 07:46:07;;;;;;;45.75;19.83;;;;;;;0.44;100.00;100911.44;5077471;28;20062;-74
2021/12/23 07:48:34;;;;;;;46.03;20.20;;;;;;;0.44;100.00;100908.72;5074983;28;20127;-75
2021/12/23 07:51:03;;;;;;;47.85;22.17;;;;;;;0.45;100.00;100891.25;5082986;28;20151;-75
2021/12/23 07:53:30;;;;;;;47.63;18.92;;;;;;;0.43;100.00;100886.13;5075730;28;20106;-75
2021/12/23 07:56:02;;;;;;;48.63;21.08;;;;;;;0.44;100.00;100895.13;5072719;28;20052;-76
2021/12/23 07:58:28;;;;;;;48.08;20.83;;;;;;;0.42;100.00;100881.81;5075096;28;20044;-75
2021/12/23 08:00:55;;;;;;;50.22;22.38;;;;;;;0.42;100.00;100870.13;5081023;28;20048;-76
2021/12/23 08:03:21;;;;;;;47.78;20.63;;;;;;;0.46;100.00;100865.63;5078226;28;20047;-74
2021/12/23 08:05:48;;;;;;;47.45;22.35;;;;;;;0.52;100.00;100869.78;5078096;28;20131;-76
2021/12/23 08:08:15;;;;;;;48.72;20.80;;;;;;;0.54;100.00;100876.47;5079709;28;20063;-75
2021/12/23 08:10:41;;;;;;;56.45;23.92;;;;;;;0.57;100.00;100885.94;5086386;28;20058;-73
2021/12/23 08:13:08;;;;;;;43.35;19.63;;;;;;;0.62;100.00;100883.03;5069286;28;20206;-74
2021/12/23 08:15:34;;;;;;;43.65;20.35;;;;;;;0.66;100.00;100876.59;5071697;28;20058;-73
2021/12/23 08:18:01;;;;;;;45.38;19.85;;;;;;;0.69;100.00;100878.69;5077208;28;20389;-75
2021/12/23 08:20:28;;;;;;;43.17;20.02;;;;;;;0.69;100.00;100873.22;5075854;28;20386;-74
2021/12/23 08:22:55;;;;;;;43.05;20.40;;;;;;;0.71;100.00;100870.19;5074952;28;20159;-74
2021/12/23 08:25:23;;;;;;;42.90;20.77;;;;;;;0.77;100.00;100877.03;5080061;28;20071;-76
2021/12/23 08:27:50;;;;;;;48.38;20.55;;;;;;;0.80;100.00;100873.63;5087445;28;20052;-74
2021/12/23 08:30:18;;;;;;;45.88;21.75;;;;;;;0.78;100.00;100859.56;5074813;28;20102;-74
2021/12/23 08:32:47;;;;;;;53.03;22.17;;;;;;;0.81;100.00;100867.09;5071270;28;20062;-77
2021/12/23 08:35:15;;;;;;;46.45;22.45;;;;;;;0.85;100.00;100873.47;5083512;28;20066;-75
2021/12/23 08:37:46;;;;;;;46.45;21.17;;;;;;;0.86;100.00;100866.88;5099844;28;20600;-73
2021/12/23 08:40:18;;;;;;;51.05;21.95;;;;;;;0.88;100.00;100870.88;5071688;28;20053;-75
2021/12/23 08:42:45;;;;;;;41.17;21.55;;;;;;;0.95;100.00;100884.00;5066805;28;20163;-75
2021/12/23 08:45:11;;;;;;;58.25;24.88;;;;;;;1.00;100.00;100881.06;5082497;28;20063;-74
2021/12/23 08:47:38;;;;;;;63.15;25.67;;;;;;;1.00;100.00;100872.88;5078197;28;20131;-74
2021/12/23 08:50:07;;;;;;;49.72;22.30;;;;;;;1.05;100.00;100870.00;5070164;28;20116;-73
2021/12/23 08:52:34;;;;;;;55.10;24.85;;;;;;;1.13;100.00;100874.59;5066529;28;20060;-74
2021/12/23 08:55:03;;;;;;;51.85;23.95;;;;;;;1.14;100.00;100878.88;5072118;28;20056;-74
2021/12/23 08:57:30;;;;;;;47.45;21.20;;;;;;;1.17;100.00;100876.31;5075492;28;20036;-74
2021/12/23 08:59:56;;;;;;;52.75;24.10;;;;;;;1.19;100.00;100865.91;5082709;28;20048;-75
2021/12/23 09:02:23;;;;;;;47.72;23.92;;;;;;;1.25;100.00;100870.00;5076394;28;20067;-74
2021/12/23 09:04:50;;;;;;;48.45;23.92;;;;;;;1.32;100.00;100864.81;5072297;28;20052;-74
2021/12/23 09:07:16;;;;;;;51.45;23.83;;;;;;;1.37;100.00;100866.56;5082012;28;20127;-74
2021/12/23 09:09:47;;;;;;;50.50;23.02;;;;;;;1.42;100.00;100863.66;5081131;28;20056;-73
2021/12/23 09:12:13;;;;;;;48.83;21.33;;;;;;;1.46;100.00;100849.03;5086454;28;20044;-72
2021/12/23 09:14:40;;;;;;;51.58;23.02;;;;;;;1.50;100.00;100849.94;5068263;28;20095;-71
2021/12/23 09:17:12;;;;;;;50.40;24.02;;;;;;;1.55;100.00;100846.22;5072648;28;20420;-72
2021/12/23 09:19:40;;;;;;;52.75;24.02;;;;;;;1.57;100.00;100843.94;5077052;28;20135;-71
2021/12/23 09:22:08;;;;;;;44.47;24.00;;;;;;;1.60;100.00;100841.34;5067588;28;20082;-70
2021/12/23 09:24:38;;;;;;;56.78;24.63;;;;;;;1.68;100.00;100839.66;5080481;28;20061;-73
2021/12/23 09:27:23;;;;;;;49.15;23.15;;;;;;;1.75;100.00;100835.25;5076217;28;20048;-70
2021/12/23 09:35:03;;;;;;;54.47;25.42;;;;;;;2.02;100.00;100833.84;5078429;28;20076;-73
2021/12/23 09:37:30;;;;;;;49.95;24.80;;;;;;;2.06;100.00;100829.34;5093737;28;20064;-73
2021/12/23 09:39:58;;;;;;;48.60;21.67;;;;;;;2.14;100.00;100831.19;5074093;28;20423;-74
2021/12/23 09:42:29;;;;;;;51.88;20.27;;;;;;;2.21;100.00;100823.22;5066478;28;20698;-73
2021/12/23 09:45:00;;;;;;;45.58;19.15;;;;;;;2.26;100.00;100810.16;5068201;28;20048;-73
2021/12/23 09:47:28;;;;;;;41.83;19.45;;;;;;;2.31;99.49;100799.03;5075581;28;20045;-73
2021/12/23 09:49:57;;;;;;;47.20;21.83;;;;;;;2.39;98.07;100794.56;5076423;28;20060;-74
2021/12/23 09:52:26;;;;;;;44.40;19.85;;;;;;;2.45;98.31;100790.47;5075322;28;20051;-74
2021/12/23 09:54:55;;;;;;;49.10;21.88;;;;;;;2.48;98.53;100789.81;5076068;28;20517;-73
2021/12/23 09:57:22;;;;;;;41.55;19.50;;;;;;;2.52;98.22;100796.16;5072696;28;20053;-73
2021/12/23 09:59:48;;;;;;;40.67;19.92;;;;;;;2.53;97.29;100782.16;5080212;28;20049;-74
2021/12/23 10:02:15;;;;;;;46.67;21.75;;;;;;;2.55;95.75;100781.84;5081835;28;20057;-73
2021/12/23 10:04:42;;;;;;;41.38;19.95;;;;;;;2.61;94.38;100778.50;5070786;28;20064;-73
2021/12/23 10:07:09;;;;;;;45.58;20.90;;;;;;;2.65;94.14;100775.91;5079739;28;20561;-73
2021/12/23 10:09:51;;;;;;;48.30;22.92;;;;;;;2.69;93.81;100777.63;5083865;28;20863;-74
2021/12/23 10:37:21;;;;;;;42.50;19.70;;;;;;;3.25;87.94;100731.25;5079821;28;20045;-73
2021/12/23 10:39:50;;;;;;;46.00;19.52;;;;;;;3.31;87.38;100714.22;5072158;28;20048;-73
2021/12/23 10:42:21;;;;;;;47.38;20.60;;;;;;;3.36;86.97;100714.00;5071549;28;20079;-71
2021/12/23 10:44:53;;;;;;;46.95;19.60;;;;;;;3.42;87.83;100714.53;5078514;28;20619;-71
2021/12/23 10:47:45;;;;;;;18.95;8.68;;;;;;;3.43;86.20;100710.63;5071988;28;20056;-73
2021/12/23 10:50:14;;;;;;;42.58;19.30;;;;;;;3.54;86.46;100698.06;5086891;28;20397;-70
2021/12/23 10:53:02;;;;;;;42.40;19.83;;;;;;;3.62;87.74;100680.69;5074224;28;20570;-70
2021/12/23 10:58:16;;;;;;;44.75;19.42;;;;;;;3.85;86.88;100676.19;5070118;28;20135;-73
2021/12/23 11:00:52;;;;;;;45.17;19.60;;;;;;;3.96;87.45;100671.78;5077410;28;20056;-73
2021/12/23 11:03:43;;;;;;;50.50;21.00;;;;;;;3.94;85.56;100663.91;5075016;28;20402;-71
2021/12/23 11:06:25;;;;;;;40.13;18.55;;;;;;;4.01;86.15;100666.00;5066213;28;20558;-73
2021/12/23 11:09:35;;;;;;;44.85;20.08;;;;;;;4.05;85.58;100664.97;5062420;28;21444;-73
2021/12/23 11:42:28;;;;;;;39.65;17.85;;;;;;;5.31;78.19;100606.56;5069253;28;20064;-72
2021/12/23 11:44:55;;;;;;;25.35;9.88;;;;;;;5.24;76.52;100606.44;5073629;28;20171;-70
2021/12/23 11:47:24;;;;;;;36.10;15.15;;;;;;;5.26;76.31;100599.44;5070479;28;20049;-71
2021/12/23 11:49:51;;;;;;;46.90;18.55;;;;;;;5.29;76.74;100597.91;5078992;28;20072;-73
2021/12/23 11:52:17;;;;;;;22.88;8.70;;;;;;;5.30;76.47;100592.06;5074620;28;20080;-71
2021/12/23 11:54:46;;;;;;;44.70;17.35;;;;;;;5.44;76.80;100586.81;5077663;28;20063;-71
2021/12/23 11:57:23;;;;;;;38.35;15.98;;;;;;;5.44;76.42;100583.28;5068667;28;20135;-72
2021/12/23 12:00:08;;;;;;;33.25;15.65;;;;;;;5.50;76.29;100589.28;5066700;28;20172;-71
2021/12/23 12:02:35;;;;;;;42.40;17.10;;;;;;;5.61;76.56;100573.75;5071129;28;20162;-73
2021/12/23 12:05:06;;;;;;;25.58;10.50;;;;;;;5.68;76.24;100568.38;5070071;28;20155;-71
2021/12/23 12:07:33;;;;;;;17.80;7.90;;;;;;;5.78;74.92;100559.53;5057423;28;20062;-73
2021/12/23 12:10:01;;;;;;;30.85;12.57;;;;;;;6.00;74.22;100559.50;5056134;28;21462;-74
2021/12/23 12:12:29;;;;;;;36.63;14.32;;;;;;;6.16;74.90;100559.34;5059067;28;20056;-73
2021/12/23 12:14:56;;;;;;;14.93;6.07;;;;;;;6.08;72.84;100546.69;5060357;28;20350;-74
2021/12/23 12:17:23;;;;;;;30.92;14.13;;;;;;;6.24;73.20;100550.06;5070788;28;20050;-73
2021/12/23 12:19:57;;;;;;;4.20;2.25;;;;;;;6.26;73.90;100559.50;5064320;28;20063;-71
2021/12/23 12:22:46;;;;;;;8.40;4.63;;;;;;;6.23;72.85;100554.75;5058720;28;20607;-72
2021/12/23 12:25:42;;;;;;;15.55;7.53;;;;;;;6.16;73.07;100531.88;5059785;28;20063;-73
2021/12/23 12:28:08;;;;;;;24.10;9.88;;;;;;;6.29;73.74;100535.97;5057450;28;20637;-72